sensor_id;sensor_type;location;lat;lon;timestamp;P1;durP1;ratioP1;P2;durP2;ratioP2
35418;SDS011;21525;41.240;16.500;2022-12-18T00:01:47;13.60;;;8.10;;
35418;SDS011;21525;41.240;16.500;2022-12-18T00:04:23;18.20;;;8.57;;
35418;SDS011;21525;41.240;16.500;2022-12-18T00:06:50;12.98;;;7.90;;
35418;SDS011;21525;41.240;16.500;2022-12-18T00:09:16;17.83;;;9.45;;
35418;SDS011;21525;41.240;16.500;2022-12-18T00:11:43;16.00;;;8.63;;
35418;SDS011;21525;41.240;16.500;2022-12-18T00:14:10;17.40;;;8.82;;
35418;SDS011;21525;41.240;16.500;2022-12-18T00:16:37;14.20;;;9.38;;
35418;SDS011;21525;41.240;16.500;2022-12-18T00:19:05;16.35;;;10.48;;
35418;SDS011;21525;41.240;16.500;2022-12-18T00:21:31;18.00;;;10.38;;
35418;SDS011;21525;41.240;16.500;2022-12-18T00:23:58;18.05;;;10.43;;
35418;SDS011;21525;41.240;16.500;2022-12-18T00:26:26;16.60;;;10.52;;
35418;SDS011;21525;41.240;16.500;2022-12-18T00:29:06;19.65;;;12.10;;
35418;SDS011;21525;41.240;16.500;2022-12-18T00:31:39;20.55;;;11.82;;
35418;SDS011;21525;41.240;16.500;2022-12-18T00:34:05;19.67;;;10.95;;
35418;SDS011;21525;41.240;16.500;2022-12-18T00:36:32;18.27;;;12.38;;
35418;SDS011;21525;41.240;16.500;2022-12-18T00:38:59;22.35;;;12.30;;
35418;SDS011;21525;41.240;16.500;2022-12-18T00:41:29;19.92;;;12.80;;
35418;SDS011;21525;41.240;16.500;2022-12-18T00:44:14;22.73;;;13.73;;
35418;SDS011;21525;41.240;16.500;2022-12-18T00:46:41;22.75;;;13.40;;
35418;SDS011;21525;41.240;16.500;2022-12-18T00:49:08;21.92;;;14.65;;
35418;SDS011;21525;41.240;16.500;2022-12-18T00:51:37;22.85;;;14.85;;
35418;SDS011;21525;41.240;16.500;2022-12-18T00:54:03;20.63;;;15.02;;
35418;SDS011;21525;41.240;16.500;2022-12-18T00:56:29;22.45;;;15.55;;
35418;SDS011;21525;41.240;16.500;2022-12-18T00:58:55;22.90;;;15.45;;
35418;SDS011;21525;41.240;16.500;2022-12-18T01:01:21;26.95;;;17.30;;
35418;SDS011;21525;41.240;16.500;2022-12-18T01:03:47;27.33;;;17.50;;
35418;SDS011;21525;41.240;16.500;2022-12-18T01:06:15;28.58;;;18.15;;
35418;SDS011;21525;41.240;16.500;2022-12-18T01:08:41;26.90;;;17.20;;
35418;SDS011;21525;41.240;16.500;2022-12-18T01:11:12;27.08;;;17.17;;
35418;SDS011;21525;41.240;16.500;2022-12-18T01:13:40;27.77;;;16.90;;
35418;SDS011;21525;41.240;16.500;2022-12-18T01:16:06;24.35;;;16.10;;
35418;SDS011;21525;41.240;16.500;2022-12-18T01:18:34;24.95;;;17.20;;
35418;SDS011;21525;41.240;16.500;2022-12-18T01:21:02;26.55;;;16.27;;
35418;SDS011;21525;41.240;16.500;2022-12-18T01:23:36;25.30;;;16.67;;
35418;SDS011;21525;41.240;16.500;2022-12-18T01:26:13;26.02;;;15.38;;
35418;SDS011;21525;41.240;16.500;2022-12-18T01:28:41;27.50;;;17.25;;
35418;SDS011;21525;41.240;16.500;2022-12-18T01:31:14;22.88;;;15.55;;
35418;SDS011;21525;41.240;16.500;2022-12-18T01:33:45;23.02;;;15.55;;
35418;SDS011;21525;41.240;16.500;2022-12-18T01:36:15;25.85;;;14.85;;
35418;SDS011;21525;41.240;16.500;2022-12-18T01:38:46;23.13;;;15.73;;
35418;SDS011;21525;41.240;16.500;2022-12-18T01:41:13;22.45;;;15.15;;
35418;SDS011;21525;41.240;16.500;2022-12-18T01:43:57;23.27;;;15.43;;
35418;SDS011;21525;41.240;16.500;2022-12-18T01:46:23;21.67;;;14.38;;
35418;SDS011;21525;41.240;16.500;2022-12-18T01:48:55;21.48;;;14.30;;
35418;SDS011;21525;41.240;16.500;2022-12-18T01:51:23;21.05;;;14.15;;
35418;SDS011;21525;41.240;16.500;2022-12-18T01:53:49;18.67;;;13.20;;
35418;SDS011;21525;41.240;16.500;2022-12-18T01:56:16;18.63;;;13.30;;
35418;SDS011;21525;41.240;16.500;2022-12-18T02:01:13;19.60;;;13.80;;
35418;SDS011;21525;41.240;16.500;2022-12-18T02:03:43;21.17;;;13.48;;
35418;SDS011;21525;41.240;16.500;2022-12-18T02:06:20;22.52;;;15.35;;
35418;SDS011;21525;41.240;16.500;2022-12-18T02:11:40;21.65;;;12.95;;
35418;SDS011;21525;41.240;16.500;2022-12-18T02:17:18;20.60;;;13.10;;
35418;SDS011;21525;41.240;16.500;2022-12-18T02:22:52;18.23;;;12.20;;
35418;SDS011;21525;41.240;16.500;2022-12-18T02:29:04;18.27;;;11.82;;
35418;SDS011;21525;41.240;16.500;2022-12-18T02:31:28;18.40;;;10.80;;
35418;SDS011;21525;41.240;16.500;2022-12-18T02:34:01;17.20;;;10.80;;
35418;SDS011;21525;41.240;16.500;2022-12-18T02:36:35;17.10;;;9.98;;
35418;SDS011;21525;41.240;16.500;2022-12-18T02:39:04;15.93;;;10.27;;
35418;SDS011;21525;41.240;16.500;2022-12-18T02:41:31;14.90;;;10.40;;
35418;SDS011;21525;41.240;16.500;2022-12-18T02:43:59;14.90;;;9.35;;
35418;SDS011;21525;41.240;16.500;2022-12-18T02:48:59;14.40;;;9.32;;
35418;SDS011;21525;41.240;16.500;2022-12-18T02:51:41;13.50;;;8.95;;
35418;SDS011;21525;41.240;16.500;2022-12-18T02:59:51;14.02;;;9.70;;
35418;SDS011;21525;41.240;16.500;2022-12-18T03:02:29;15.88;;;9.43;;
35418;SDS011;21525;41.240;16.500;2022-12-18T03:05:16;16.60;;;8.82;;
35418;SDS011;21525;41.240;16.500;2022-12-18T03:07:50;15.77;;;9.10;;
35418;SDS011;21525;41.240;16.500;2022-12-18T03:10:38;11.75;;;8.07;;
35418;SDS011;21525;41.240;16.500;2022-12-18T03:13:13;11.85;;;8.32;;
35418;SDS011;21525;41.240;16.500;2022-12-18T03:15:49;13.40;;;8.02;;
35418;SDS011;21525;41.240;16.500;2022-12-18T03:18:20;14.88;;;7.63;;
35418;SDS011;21525;41.240;16.500;2022-12-18T03:20:51;11.48;;;6.82;;
35418;SDS011;21525;41.240;16.500;2022-12-18T03:23:22;10.73;;;6.15;;
35418;SDS011;21525;41.240;16.500;2022-12-18T03:25:55;15.73;;;6.68;;
35418;SDS011;21525;41.240;16.500;2022-12-18T03:28:25;9.07;;;5.20;;
35418;SDS011;21525;41.240;16.500;2022-12-18T03:30:59;10.52;;;5.22;;
35418;SDS011;21525;41.240;16.500;2022-12-18T03:33:29;7.93;;;4.40;;
35418;SDS011;21525;41.240;16.500;2022-12-18T03:36:00;9.23;;;4.88;;
35418;SDS011;21525;41.240;16.500;2022-12-18T03:38:27;9.25;;;4.25;;
35418;SDS011;21525;41.240;16.500;2022-12-18T03:41:02;9.88;;;5.13;;
35418;SDS011;21525;41.240;16.500;2022-12-18T03:46:40;8.10;;;4.13;;
35418;SDS011;21525;41.240;16.500;2022-12-18T03:49:16;11.57;;;5.25;;
35418;SDS011;21525;41.240;16.500;2022-12-18T03:51:56;10.13;;;5.22;;
35418;SDS011;21525;41.240;16.500;2022-12-18T03:54:28;9.25;;;5.40;;
35418;SDS011;21525;41.240;16.500;2022-12-18T03:57:16;10.80;;;6.05;;
35418;SDS011;21525;41.240;16.500;2022-12-18T03:59:45;12.23;;;5.63;;
35418;SDS011;21525;41.240;16.500;2022-12-18T04:02:16;8.68;;;5.43;;
35418;SDS011;21525;41.240;16.500;2022-12-18T04:04:44;9.20;;;5.67;;
35418;SDS011;21525;41.240;16.500;2022-12-18T04:09:43;9.70;;;5.10;;
35418;SDS011;21525;41.240;16.500;2022-12-18T04:12:12;9.15;;;5.50;;
35418;SDS011;21525;41.240;16.500;2022-12-18T04:14:38;11.48;;;5.72;;
35418;SDS011;21525;41.240;16.500;2022-12-18T04:19:33;9.80;;;5.25;;
35418;SDS011;21525;41.240;16.500;2022-12-18T04:22:00;10.52;;;5.75;;
35418;SDS011;21525;41.240;16.500;2022-12-18T04:24:29;9.25;;;5.60;;
35418;SDS011;21525;41.240;16.500;2022-12-18T04:27:07;10.05;;;6.18;;
35418;SDS011;21525;41.240;16.500;2022-12-18T04:29:40;9.15;;;5.55;;
35418;SDS011;21525;41.240;16.500;2022-12-18T04:32:06;8.93;;;5.25;;
35418;SDS011;21525;41.240;16.500;2022-12-18T04:34:33;8.60;;;5.00;;
35418;SDS011;21525;41.240;16.500;2022-12-18T04:36:59;10.13;;;4.97;;
35418;SDS011;21525;41.240;16.500;2022-12-18T04:39:26;7.97;;;4.68;;
35418;SDS011;21525;41.240;16.500;2022-12-18T04:44:20;8.55;;;4.85;;
35418;SDS011;21525;41.240;16.500;2022-12-18T04:46:46;7.45;;;4.13;;
35418;SDS011;21525;41.240;16.500;2022-12-18T04:49:11;8.98;;;4.40;;
35418;SDS011;21525;41.240;16.500;2022-12-18T04:51:37;8.38;;;4.22;;
35418;SDS011;21525;41.240;16.500;2022-12-18T04:54:03;9.23;;;4.20;;
35418;SDS011;21525;41.240;16.500;2022-12-18T04:56:30;6.95;;;4.07;;
35418;SDS011;21525;41.240;16.500;2022-12-18T04:58:57;9.32;;;4.40;;
35418;SDS011;21525;41.240;16.500;2022-12-18T05:01:23;8.38;;;3.58;;
35418;SDS011;21525;41.240;16.500;2022-12-18T05:03:48;12.43;;;4.40;;
35418;SDS011;21525;41.240;16.500;2022-12-18T05:06:16;6.30;;;3.45;;
35418;SDS011;21525;41.240;16.500;2022-12-18T05:08:42;7.05;;;3.50;;
35418;SDS011;21525;41.240;16.500;2022-12-18T05:11:09;8.13;;;3.50;;
35418;SDS011;21525;41.240;16.500;2022-12-18T05:16:03;9.23;;;3.85;;
35418;SDS011;21525;41.240;16.500;2022-12-18T05:18:30;9.07;;;3.50;;
35418;SDS011;21525;41.240;16.500;2022-12-18T05:20:56;6.88;;;3.35;;
35418;SDS011;21525;41.240;16.500;2022-12-18T05:23:23;8.70;;;3.25;;
35418;SDS011;21525;41.240;16.500;2022-12-18T05:28:26;7.00;;;4.07;;
35418;SDS011;21525;41.240;16.500;2022-12-18T05:30:56;9.90;;;4.88;;
35418;SDS011;21525;41.240;16.500;2022-12-18T05:33:24;15.57;;;7.00;;
35418;SDS011;21525;41.240;16.500;2022-12-18T05:35:51;15.98;;;9.13;;
35418;SDS011;21525;41.240;16.500;2022-12-18T05:38:18;14.70;;;7.90;;
35418;SDS011;21525;41.240;16.500;2022-12-18T05:40:45;15.45;;;6.88;;
35418;SDS011;21525;41.240;16.500;2022-12-18T05:43:12;12.18;;;6.20;;
35418;SDS011;21525;41.240;16.500;2022-12-18T05:45:38;13.70;;;6.85;;
35418;SDS011;21525;41.240;16.500;2022-12-18T05:48:05;12.10;;;5.32;;
35418;SDS011;21525;41.240;16.500;2022-12-18T05:50:35;9.50;;;5.22;;
35418;SDS011;21525;41.240;16.500;2022-12-18T05:53:05;10.85;;;5.45;;
35418;SDS011;21525;41.240;16.500;2022-12-18T05:55:35;10.40;;;5.13;;
35418;SDS011;21525;41.240;16.500;2022-12-18T05:58:03;10.52;;;5.43;;
35418;SDS011;21525;41.240;16.500;2022-12-18T06:00:30;13.77;;;5.85;;
35418;SDS011;21525;41.240;16.500;2022-12-18T06:02:57;11.52;;;6.28;;
35418;SDS011;21525;41.240;16.500;2022-12-18T06:05:24;12.85;;;5.93;;
35418;SDS011;21525;41.240;16.500;2022-12-18T06:07:50;12.90;;;6.45;;
35418;SDS011;21525;41.240;16.500;2022-12-18T06:10:16;12.20;;;5.78;;
35418;SDS011;21525;41.240;16.500;2022-12-18T06:12:42;9.88;;;5.25;;
35418;SDS011;21525;41.240;16.500;2022-12-18T06:15:08;9.90;;;5.65;;
35418;SDS011;21525;41.240;16.500;2022-12-18T06:17:35;13.18;;;5.50;;
35418;SDS011;21525;41.240;16.500;2022-12-18T06:20:01;12.77;;;6.72;;
35418;SDS011;21525;41.240;16.500;2022-12-18T06:22:26;16.40;;;6.82;;
35418;SDS011;21525;41.240;16.500;2022-12-18T06:24:53;12.13;;;7.05;;
35418;SDS011;21525;41.240;16.500;2022-12-18T06:27:18;15.20;;;7.85;;
35418;SDS011;21525;41.240;16.500;2022-12-18T06:29:44;16.20;;;8.70;;
35418;SDS011;21525;41.240;16.500;2022-12-18T06:32:10;16.45;;;9.13;;
35418;SDS011;21525;41.240;16.500;2022-12-18T06:34:37;11.43;;;8.07;;
35418;SDS011;21525;41.240;16.500;2022-12-18T06:37:03;15.65;;;8.38;;
35418;SDS011;21525;41.240;16.500;2022-12-18T06:39:29;12.27;;;7.75;;
35418;SDS011;21525;41.240;16.500;2022-12-18T06:41:55;11.80;;;6.90;;
35418;SDS011;21525;41.240;16.500;2022-12-18T06:44:21;11.48;;;7.30;;
35418;SDS011;21525;41.240;16.500;2022-12-18T06:46:47;9.82;;;6.03;;
35418;SDS011;21525;41.240;16.500;2022-12-18T06:49:13;10.85;;;6.15;;
35418;SDS011;21525;41.240;16.500;2022-12-18T06:51:39;12.05;;;6.70;;
35418;SDS011;21525;41.240;16.500;2022-12-18T06:54:04;19.20;;;7.38;;
35418;SDS011;21525;41.240;16.500;2022-12-18T06:56:30;11.63;;;6.60;;
35418;SDS011;21525;41.240;16.500;2022-12-18T06:58:56;11.98;;;6.50;;
35418;SDS011;21525;41.240;16.500;2022-12-18T07:01:22;12.02;;;7.30;;
35418;SDS011;21525;41.240;16.500;2022-12-18T07:03:51;12.20;;;6.85;;
35418;SDS011;21525;41.240;16.500;2022-12-18T07:06:22;13.05;;;6.97;;
35418;SDS011;21525;41.240;16.500;2022-12-18T07:08:50;15.32;;;8.05;;
35418;SDS011;21525;41.240;16.500;2022-12-18T07:11:16;12.10;;;6.82;;
35418;SDS011;21525;41.240;16.500;2022-12-18T07:13:43;12.02;;;7.32;;
35418;SDS011;21525;41.240;16.500;2022-12-18T07:16:14;12.45;;;8.68;;
35418;SDS011;21525;41.240;16.500;2022-12-18T07:18:41;13.30;;;8.77;;
35418;SDS011;21525;41.240;16.500;2022-12-18T07:21:07;12.68;;;8.60;;
35418;SDS011;21525;41.240;16.500;2022-12-18T07:23:35;14.73;;;8.93;;
35418;SDS011;21525;41.240;16.500;2022-12-18T07:26:08;10.98;;;8.10;;
35418;SDS011;21525;41.240;16.500;2022-12-18T07:28:36;14.57;;;8.10;;
35418;SDS011;21525;41.240;16.500;2022-12-18T07:31:24;11.52;;;8.43;;
35418;SDS011;21525;41.240;16.500;2022-12-18T07:33:49;13.23;;;9.10;;
35418;SDS011;21525;41.240;16.500;2022-12-18T07:36:16;16.23;;;9.95;;
35418;SDS011;21525;41.240;16.500;2022-12-18T07:38:42;12.82;;;9.77;;
35418;SDS011;21525;41.240;16.500;2022-12-18T07:41:11;12.95;;;8.38;;
35418;SDS011;21525;41.240;16.500;2022-12-18T07:43:38;14.35;;;9.30;;
35418;SDS011;21525;41.240;16.500;2022-12-18T07:46:06;10.27;;;7.68;;
35418;SDS011;21525;41.240;16.500;2022-12-18T07:48:33;13.90;;;7.95;;
35418;SDS011;21525;41.240;16.500;2022-12-18T07:50:59;14.63;;;8.48;;
35418;SDS011;21525;41.240;16.500;2022-12-18T07:53:26;15.18;;;9.27;;
35418;SDS011;21525;41.240;16.500;2022-12-18T07:55:56;13.07;;;8.77;;
35418;SDS011;21525;41.240;16.500;2022-12-18T07:58:22;13.75;;;8.55;;
35418;SDS011;21525;41.240;16.500;2022-12-18T08:00:48;14.07;;;9.20;;
35418;SDS011;21525;41.240;16.500;2022-12-18T08:03:14;15.95;;;10.50;;
35418;SDS011;21525;41.240;16.500;2022-12-18T08:05:39;13.00;;;9.18;;
35418;SDS011;21525;41.240;16.500;2022-12-18T08:08:05;15.55;;;9.20;;
35418;SDS011;21525;41.240;16.500;2022-12-18T08:10:31;13.38;;;9.27;;
35418;SDS011;21525;41.240;16.500;2022-12-18T08:12:57;15.57;;;8.55;;
35418;SDS011;21525;41.240;16.500;2022-12-18T08:15:23;11.70;;;8.40;;
35418;SDS011;21525;41.240;16.500;2022-12-18T08:17:49;14.13;;;8.75;;
35418;SDS011;21525;41.240;16.500;2022-12-18T08:20:15;13.70;;;8.23;;
35418;SDS011;21525;41.240;16.500;2022-12-18T08:22:41;15.27;;;8.32;;
35418;SDS011;21525;41.240;16.500;2022-12-18T08:25:07;13.90;;;8.95;;
35418;SDS011;21525;41.240;16.500;2022-12-18T08:27:34;15.30;;;8.63;;
35418;SDS011;21525;41.240;16.500;2022-12-18T08:30:00;13.65;;;8.90;;
35418;SDS011;21525;41.240;16.500;2022-12-18T08:32:26;13.90;;;8.20;;
35418;SDS011;21525;41.240;16.500;2022-12-18T08:34:52;13.00;;;8.52;;
35418;SDS011;21525;41.240;16.500;2022-12-18T08:37:18;15.05;;;8.73;;
35418;SDS011;21525;41.240;16.500;2022-12-18T08:39:44;13.18;;;8.52;;
35418;SDS011;21525;41.240;16.500;2022-12-18T08:42:10;15.15;;;8.80;;
35418;SDS011;21525;41.240;16.500;2022-12-18T08:44:54;14.18;;;8.20;;
35418;SDS011;21525;41.240;16.500;2022-12-18T08:47:20;14.60;;;7.45;;
35418;SDS011;21525;41.240;16.500;2022-12-18T08:49:46;14.15;;;7.90;;
35418;SDS011;21525;41.240;16.500;2022-12-18T08:52:12;12.52;;;8.05;;
35418;SDS011;21525;41.240;16.500;2022-12-18T08:54:37;16.40;;;9.25;;
35418;SDS011;21525;41.240;16.500;2022-12-18T08:57:03;13.77;;;8.05;;
35418;SDS011;21525;41.240;16.500;2022-12-18T08:59:29;12.32;;;9.13;;
35418;SDS011;21525;41.240;16.500;2022-12-18T09:01:55;15.55;;;10.65;;
35418;SDS011;21525;41.240;16.500;2022-12-18T09:04:21;18.17;;;9.45;;
35418;SDS011;21525;41.240;16.500;2022-12-18T09:06:47;18.63;;;10.15;;
35418;SDS011;21525;41.240;16.500;2022-12-18T09:09:13;15.70;;;9.98;;
35418;SDS011;21525;41.240;16.500;2022-12-18T09:11:39;14.40;;;9.43;;
35418;SDS011;21525;41.240;16.500;2022-12-18T09:14:05;13.43;;;9.13;;
35418;SDS011;21525;41.240;16.500;2022-12-18T09:16:31;16.13;;;8.70;;
35418;SDS011;21525;41.240;16.500;2022-12-18T09:19:00;12.35;;;9.10;;
35418;SDS011;21525;41.240;16.500;2022-12-18T09:21:28;12.95;;;7.75;;
35418;SDS011;21525;41.240;16.500;2022-12-18T09:23:56;14.32;;;7.90;;
35418;SDS011;21525;41.240;16.500;2022-12-18T09:26:22;11.30;;;7.75;;
35418;SDS011;21525;41.240;16.500;2022-12-18T09:28:49;15.32;;;8.75;;
35418;SDS011;21525;41.240;16.500;2022-12-18T09:31:16;17.65;;;10.57;;
35418;SDS011;21525;41.240;16.500;2022-12-18T09:33:43;16.58;;;10.60;;
35418;SDS011;21525;41.240;16.500;2022-12-18T09:36:11;16.52;;;10.80;;
35418;SDS011;21525;41.240;16.500;2022-12-18T09:38:40;15.07;;;9.57;;
35418;SDS011;21525;41.240;16.500;2022-12-18T09:43:48;11.52;;;7.10;;
35418;SDS011;21525;41.240;16.500;2022-12-18T09:46:23;15.07;;;8.48;;
35418;SDS011;21525;41.240;16.500;2022-12-18T09:48:54;13.90;;;9.43;;
35418;SDS011;21525;41.240;16.500;2022-12-18T09:52:02;13.15;;;7.18;;
35418;SDS011;21525;41.240;16.500;2022-12-18T09:54:26;11.95;;;7.22;;
35418;SDS011;21525;41.240;16.500;2022-12-18T09:56:58;13.38;;;7.93;;
35418;SDS011;21525;41.240;16.500;2022-12-18T09:59:33;17.85;;;9.20;;
35418;SDS011;21525;41.240;16.500;2022-12-18T10:02:12;15.13;;;8.25;;
35418;SDS011;21525;41.240;16.500;2022-12-18T10:04:39;14.63;;;8.23;;
35418;SDS011;21525;41.240;16.500;2022-12-18T10:07:11;17.95;;;10.18;;
35418;SDS011;21525;41.240;16.500;2022-12-18T10:12:37;18.10;;;10.68;;
35418;SDS011;21525;41.240;16.500;2022-12-18T10:21:03;10.98;;;6.05;;
35418;SDS011;21525;41.240;16.500;2022-12-18T10:26:28;12.98;;;6.60;;
35418;SDS011;21525;41.240;16.500;2022-12-18T10:28:58;12.20;;;6.97;;
35418;SDS011;21525;41.240;16.500;2022-12-18T10:31:24;12.77;;;6.57;;
35418;SDS011;21525;41.240;16.500;2022-12-18T10:33:51;16.10;;;8.50;;
35418;SDS011;21525;41.240;16.500;2022-12-18T10:36:20;16.35;;;10.23;;
35418;SDS011;21525;41.240;16.500;2022-12-18T10:38:46;17.95;;;10.15;;
35418;SDS011;21525;41.240;16.500;2022-12-18T10:43:46;13.40;;;7.68;;
35418;SDS011;21525;41.240;16.500;2022-12-18T10:46:19;17.00;;;8.20;;
35418;SDS011;21525;41.240;16.500;2022-12-18T10:48:56;15.82;;;7.93;;
35418;SDS011;21525;41.240;16.500;2022-12-18T10:53:54;15.68;;;7.50;;
35418;SDS011;21525;41.240;16.500;2022-12-18T10:56:23;14.13;;;8.02;;
35418;SDS011;21525;41.240;16.500;2022-12-18T10:58:55;13.38;;;7.40;;
35418;SDS011;21525;41.240;16.500;2022-12-18T11:01:27;10.43;;;7.30;;
35418;SDS011;21525;41.240;16.500;2022-12-18T11:06:23;15.02;;;7.68;;
35418;SDS011;21525;41.240;16.500;2022-12-18T11:09:01;14.30;;;8.03;;
35418;SDS011;21525;41.240;16.500;2022-12-18T11:11:31;14.45;;;7.57;;
35418;SDS011;21525;41.240;16.500;2022-12-18T11:14:00;10.30;;;7.13;;
35418;SDS011;21525;41.240;16.500;2022-12-18T11:16:28;13.60;;;7.40;;
35418;SDS011;21525;41.240;16.500;2022-12-18T11:19:08;10.77;;;6.80;;
35418;SDS011;21525;41.240;16.500;2022-12-18T11:21:40;12.68;;;6.72;;
35418;SDS011;21525;41.240;16.500;2022-12-18T11:24:14;18.15;;;8.07;;
35418;SDS011;21525;41.240;16.500;2022-12-18T11:26:46;22.88;;;9.43;;
35418;SDS011;21525;41.240;16.500;2022-12-18T11:29:34;11.68;;;9.30;;
35418;SDS011;21525;41.240;16.500;2022-12-18T11:34:39;14.38;;;7.50;;
35418;SDS011;21525;41.240;16.500;2022-12-18T11:37:14;15.50;;;8.70;;
35418;SDS011;21525;41.240;16.500;2022-12-18T11:45:50;12.30;;;5.85;;
35418;SDS011;21525;41.240;16.500;2022-12-18T11:50:55;15.50;;;7.20;;
35418;SDS011;21525;41.240;16.500;2022-12-18T11:55:54;15.25;;;7.38;;
35418;SDS011;21525;41.240;16.500;2022-12-18T12:06:20;12.82;;;4.70;;
35418;SDS011;21525;41.240;16.500;2022-12-18T12:08:57;17.27;;;6.57;;
35418;SDS011;21525;41.240;16.500;2022-12-18T12:17:37;8.95;;;4.05;;
35418;SDS011;21525;41.240;16.500;2022-12-18T12:23:11;14.82;;;4.80;;
35418;SDS011;21525;41.240;16.500;2022-12-18T12:38:55;12.50;;;4.22;;
35418;SDS011;21525;41.240;16.500;2022-12-18T12:41:27;14.13;;;3.70;;
35418;SDS011;21525;41.240;16.500;2022-12-18T12:44:20;12.18;;;3.40;;
35418;SDS011;21525;41.240;16.500;2022-12-18T12:46:57;9.07;;;3.53;;
35418;SDS011;21525;41.240;16.500;2022-12-18T12:49:31;10.05;;;3.25;;
35418;SDS011;21525;41.240;16.500;2022-12-18T12:52:06;16.80;;;4.50;;
35418;SDS011;21525;41.240;16.500;2022-12-18T12:54:36;14.77;;;4.03;;
35418;SDS011;21525;41.240;16.500;2022-12-18T12:57:13;12.55;;;4.13;;
35418;SDS011;21525;41.240;16.500;2022-12-18T13:05:02;11.95;;;4.65;;
35418;SDS011;21525;41.240;16.500;2022-12-18T13:07:30;13.13;;;4.30;;
35418;SDS011;21525;41.240;16.500;2022-12-18T13:23:18;8.80;;;3.83;;
35418;SDS011;21525;41.240;16.500;2022-12-18T13:34:17;13.65;;;4.35;;
35418;SDS011;21525;41.240;16.500;2022-12-18T13:36:46;9.65;;;4.00;;
35418;SDS011;21525;41.240;16.500;2022-12-18T13:41:49;13.98;;;3.92;;
35418;SDS011;21525;41.240;16.500;2022-12-18T13:46:51;9.73;;;4.80;;
35418;SDS011;21525;41.240;16.500;2022-12-18T13:51:50;13.57;;;3.75;;
35418;SDS011;21525;41.240;16.500;2022-12-18T13:57:02;9.30;;;3.50;;
35418;SDS011;21525;41.240;16.500;2022-12-18T13:59:40;15.63;;;3.38;;
35418;SDS011;21525;41.240;16.500;2022-12-18T14:02:13;15.43;;;4.43;;
35418;SDS011;21525;41.240;16.500;2022-12-18T14:04:46;23.92;;;4.70;;
35418;SDS011;21525;41.240;16.500;2022-12-18T14:07:26;12.95;;;5.07;;
35418;SDS011;21525;41.240;16.500;2022-12-18T14:09:56;13.18;;;4.03;;
35418;SDS011;21525;41.240;16.500;2022-12-18T14:12:25;13.55;;;4.68;;
35418;SDS011;21525;41.240;16.500;2022-12-18T14:15:31;11.63;;;3.65;;
35418;SDS011;21525;41.240;16.500;2022-12-18T14:20:28;12.15;;;4.30;;
35418;SDS011;21525;41.240;16.500;2022-12-18T14:22:56;8.20;;;2.92;;
35418;SDS011;21525;41.240;16.500;2022-12-18T14:30:36;15.05;;;3.22;;
35418;SDS011;21525;41.240;16.500;2022-12-18T14:33:10;8.77;;;3.67;;
35418;SDS011;21525;41.240;16.500;2022-12-18T14:40:54;13.43;;;4.05;;
35418;SDS011;21525;41.240;16.500;2022-12-18T14:43:24;13.82;;;4.75;;
35418;SDS011;21525;41.240;16.500;2022-12-18T14:45:52;20.23;;;5.20;;
35418;SDS011;21525;41.240;16.500;2022-12-18T14:48:37;13.75;;;5.40;;
35418;SDS011;21525;41.240;16.500;2022-12-18T14:51:12;13.80;;;4.03;;
35418;SDS011;21525;41.240;16.500;2022-12-18T14:53:41;11.40;;;3.70;;
35418;SDS011;21525;41.240;16.500;2022-12-18T14:58:50;15.52;;;4.07;;
35418;SDS011;21525;41.240;16.500;2022-12-18T15:01:32;13.88;;;4.13;;
35418;SDS011;21525;41.240;16.500;2022-12-18T15:04:04;14.18;;;3.70;;
35418;SDS011;21525;41.240;16.500;2022-12-18T15:06:48;11.40;;;4.50;;
35418;SDS011;21525;41.240;16.500;2022-12-18T15:09:21;10.45;;;3.50;;
35418;SDS011;21525;41.240;16.500;2022-12-18T15:11:48;11.05;;;3.90;;
35418;SDS011;21525;41.240;16.500;2022-12-18T15:19:41;11.38;;;3.30;;
35418;SDS011;21525;41.240;16.500;2022-12-18T15:24:46;12.53;;;4.30;;
35418;SDS011;21525;41.240;16.500;2022-12-18T15:32:34;12.50;;;5.13;;
35418;SDS011;21525;41.240;16.500;2022-12-18T15:35:24;17.38;;;5.03;;
35418;SDS011;21525;41.240;16.500;2022-12-18T15:37:50;16.67;;;4.77;;
35418;SDS011;21525;41.240;16.500;2022-12-18T15:40:17;15.65;;;4.75;;
35418;SDS011;21525;41.240;16.500;2022-12-18T15:42:44;16.63;;;4.82;;
35418;SDS011;21525;41.240;16.500;2022-12-18T15:45:30;10.40;;;3.67;;
35418;SDS011;21525;41.240;16.500;2022-12-18T15:47:56;12.00;;;3.83;;
35418;SDS011;21525;41.240;16.500;2022-12-18T15:50:21;15.52;;;4.20;;
35418;SDS011;21525;41.240;16.500;2022-12-18T15:52:48;17.48;;;7.10;;
35418;SDS011;21525;41.240;16.500;2022-12-18T15:55:18;15.40;;;6.03;;
35418;SDS011;21525;41.240;16.500;2022-12-18T15:58:04;14.23;;;5.60;;
35418;SDS011;21525;41.240;16.500;2022-12-18T16:00:31;11.32;;;4.28;;
35418;SDS011;21525;41.240;16.500;2022-12-18T16:03:02;16.13;;;5.00;;
35418;SDS011;21525;41.240;16.500;2022-12-18T16:05:29;9.38;;;4.07;;
35418;SDS011;21525;41.240;16.500;2022-12-18T16:07:55;9.18;;;4.10;;
35418;SDS011;21525;41.240;16.500;2022-12-18T16:10:21;10.38;;;4.45;;
35418;SDS011;21525;41.240;16.500;2022-12-18T16:12:47;13.65;;;4.28;;
35418;SDS011;21525;41.240;16.500;2022-12-18T16:15:13;14.00;;;5.00;;
35418;SDS011;21525;41.240;16.500;2022-12-18T16:17:41;13.93;;;4.30;;
35418;SDS011;21525;41.240;16.500;2022-12-18T16:20:12;12.35;;;4.63;;
35418;SDS011;21525;41.240;16.500;2022-12-18T16:22:41;12.73;;;4.43;;
35418;SDS011;21525;41.240;16.500;2022-12-18T16:25:11;8.80;;;4.38;;
35418;SDS011;21525;41.240;16.500;2022-12-18T16:27:49;13.38;;;4.68;;
35418;SDS011;21525;41.240;16.500;2022-12-18T16:30:20;10.00;;;4.13;;
35418;SDS011;21525;41.240;16.500;2022-12-18T16:32:47;14.82;;;4.28;;
35418;SDS011;21525;41.240;16.500;2022-12-18T16:35:14;13.98;;;4.25;;
35418;SDS011;21525;41.240;16.500;2022-12-18T16:37:41;15.27;;;4.60;;
35418;SDS011;21525;41.240;16.500;2022-12-18T16:40:09;23.23;;;6.28;;
35418;SDS011;21525;41.240;16.500;2022-12-18T16:42:37;13.52;;;5.38;;
35418;SDS011;21525;41.240;16.500;2022-12-18T16:45:05;10.87;;;4.10;;
35418;SDS011;21525;41.240;16.500;2022-12-18T16:47:33;12.83;;;5.43;;
35418;SDS011;21525;41.240;16.500;2022-12-18T16:49:59;15.52;;;4.85;;
35418;SDS011;21525;41.240;16.500;2022-12-18T16:52:25;12.52;;;5.70;;
35418;SDS011;21525;41.240;16.500;2022-12-18T16:54:52;11.48;;;6.00;;
35418;SDS011;21525;41.240;16.500;2022-12-18T16:57:19;10.65;;;4.25;;
35418;SDS011;21525;41.240;16.500;2022-12-18T16:59:45;14.40;;;4.82;;
35418;SDS011;21525;41.240;16.500;2022-12-18T17:02:13;14.85;;;4.88;;
35418;SDS011;21525;41.240;16.500;2022-12-18T17:04:41;10.32;;;4.10;;
35418;SDS011;21525;41.240;16.500;2022-12-18T17:07:07;12.90;;;5.30;;
35418;SDS011;21525;41.240;16.500;2022-12-18T17:09:33;14.25;;;5.50;;
35418;SDS011;21525;41.240;16.500;2022-12-18T17:11:59;11.35;;;5.10;;
35418;SDS011;21525;41.240;16.500;2022-12-18T17:14:25;10.57;;;4.82;;
35418;SDS011;21525;41.240;16.500;2022-12-18T17:16:54;9.82;;;4.72;;
35418;SDS011;21525;41.240;16.500;2022-12-18T17:19:22;13.13;;;4.65;;
35418;SDS011;21525;41.240;16.500;2022-12-18T17:21:48;12.85;;;5.05;;
35418;SDS011;21525;41.240;16.500;2022-12-18T17:24:15;11.23;;;4.85;;
35418;SDS011;21525;41.240;16.500;2022-12-18T17:26:41;10.90;;;4.55;;